createdAt,value
2018-09-20T00:02:19.110Z,10.82
2018-09-20T00:04:51.386Z,8.78
2018-09-20T00:07:23.827Z,8.23
2018-09-20T00:09:56.089Z,9.28
2018-09-20T00:12:28.361Z,9.28
2018-09-20T00:15:00.669Z,10.48
2018-09-20T00:17:33.008Z,11.15
2018-09-20T00:20:05.657Z,10.95
2018-09-20T00:22:37.899Z,11.45
2018-09-20T00:25:10.183Z,9.53
2018-09-20T00:27:42.566Z,9.83
2018-09-20T00:30:14.844Z,8.25
2018-09-20T00:32:47.072Z,9.70
2018-09-20T00:35:19.349Z,9.30
2018-09-20T00:37:51.609Z,10.03
2018-09-20T00:40:23.873Z,9.60
2018-09-20T00:42:56.093Z,9.45
2018-09-20T00:45:28.417Z,11.15
2018-09-20T00:48:00.782Z,11.12
2018-09-20T00:50:33.083Z,9.90
2018-09-20T00:53:05.853Z,10.45
2018-09-20T00:55:38.111Z,9.43
2018-09-20T00:58:10.333Z,9.95
2018-09-20T01:00:42.661Z,8.83
2018-09-20T01:03:14.913Z,8.33
2018-09-20T01:05:47.206Z,8.00
2018-09-20T01:08:19.462Z,9.00
2018-09-20T01:10:51.745Z,9.70
2018-09-20T01:13:23.997Z,9.13
2018-09-20T01:15:56.257Z,9.13
2018-09-20T01:18:28.497Z,9.83
2018-09-20T01:21:00.741Z,9.40
2018-09-20T01:23:33.029Z,9.45
2018-09-20T01:26:05.344Z,9.33
2018-09-20T01:28:37.557Z,8.20
2018-09-20T01:31:09.818Z,9.10
2018-09-20T01:33:42.052Z,8.75
2018-09-20T01:36:14.339Z,10.20
2018-09-20T01:38:46.596Z,9.40
2018-09-20T01:41:18.839Z,9.58
2018-09-20T01:43:51.089Z,9.23
2018-09-20T01:46:23.324Z,9.55
2018-09-20T01:48:55.580Z,7.42
2018-09-20T01:51:27.898Z,8.50
2018-09-20T01:54:00.167Z,8.10
2018-09-20T01:56:32.464Z,8.98
2018-09-20T01:59:04.750Z,9.50
2018-09-20T02:01:37.076Z,9.23
2018-09-20T02:04:09.319Z,8.88
2018-09-20T02:06:41.600Z,9.73
2018-09-20T02:09:13.888Z,9.25
2018-09-20T02:11:46.143Z,8.20
2018-09-20T02:14:18.393Z,8.43
2018-09-20T02:16:50.634Z,8.43
2018-09-20T02:19:22.873Z,8.53
2018-09-20T02:21:55.171Z,9.95
2018-09-20T02:24:27.416Z,8.58
2018-09-20T02:26:59.645Z,8.60
2018-09-20T02:29:31.882Z,10.10
2018-09-20T02:32:04.132Z,9.30
2018-09-20T02:34:36.381Z,9.68
2018-09-20T02:37:08.674Z,8.35
2018-09-20T02:39:40.915Z,10.20
2018-09-20T02:42:13.191Z,8.30
2018-09-20T02:44:45.530Z,8.07
2018-09-20T02:47:17.764Z,9.50
2018-09-20T02:49:50.030Z,9.38
2018-09-20T02:52:22.261Z,9.00
2018-09-20T02:54:54.510Z,9.55
2018-09-20T02:57:26.750Z,8.78
2018-09-20T02:59:59.035Z,9.30
2018-09-20T03:02:31.329Z,9.20
2018-09-20T03:05:03.897Z,9.10
2018-09-20T03:07:36.142Z,9.58
2018-09-20T03:10:08.430Z,8.25
2018-09-20T03:12:40.731Z,9.00
2018-09-20T03:15:13.010Z,8.60
2018-09-20T03:17:45.241Z,9.43
2018-09-20T03:20:17.590Z,10.10
2018-09-20T03:22:49.808Z,8.03
2018-09-20T03:25:22.058Z,9.53
2018-09-20T03:27:54.352Z,8.65
2018-09-20T03:30:26.842Z,9.73
2018-09-20T03:32:59.061Z,9.50
2018-09-20T03:35:31.345Z,9.70
2018-09-20T03:38:03.591Z,8.58
2018-09-20T03:40:35.875Z,10.08
2018-09-20T03:43:08.149Z,9.58
2018-09-20T03:45:40.387Z,9.53
2018-09-20T03:48:12.689Z,10.10
2018-09-20T03:50:44.973Z,9.73
2018-09-20T03:53:17.224Z,9.40
2018-09-20T03:55:49.505Z,9.40
2018-09-20T03:58:21.785Z,8.70
2018-09-20T04:00:54.052Z,9.98
2018-09-20T04:03:26.322Z,10.48
2018-09-20T04:05:58.612Z,10.28
2018-09-20T04:08:30.893Z,9.40
2018-09-20T04:11:03.142Z,8.68
2018-09-20T04:13:35.465Z,8.43
2018-09-20T04:16:07.704Z,8.33
2018-09-20T04:18:39.995Z,9.33
2018-09-20T04:21:16.388Z,9.87
2018-09-20T04:23:48.675Z,9.10
2018-09-20T04:26:20.896Z,10.50
2018-09-20T04:28:53.261Z,9.43
2018-09-20T04:31:26.115Z,9.50
2018-09-20T04:33:59.381Z,9.50
2018-09-20T04:36:31.666Z,10.43
2018-09-20T04:39:06.975Z,8.20
2018-09-20T04:41:39.249Z,9.17
2018-09-20T04:44:11.496Z,8.33
2018-09-20T04:46:43.782Z,7.97
2018-09-20T04:49:16.058Z,7.73
2018-09-20T04:51:48.423Z,8.80
2018-09-20T04:54:20.711Z,9.40
2018-09-20T04:56:52.988Z,8.50
2018-09-20T04:59:25.274Z,10.03
2018-09-20T05:01:57.740Z,8.37
2018-09-20T05:04:30.124Z,8.47
2018-09-20T05:07:02.375Z,8.97
2018-09-20T05:09:34.670Z,10.03
2018-09-20T05:12:06.928Z,10.63
2018-09-20T05:14:39.213Z,10.83
2018-09-20T05:17:11.475Z,10.20
2018-09-20T05:19:43.816Z,11.07
2018-09-20T05:22:16.101Z,10.07
2018-09-20T05:24:48.393Z,9.77
2018-09-20T05:27:20.669Z,9.38
2018-09-20T05:29:53.011Z,10.33
2018-09-20T05:32:25.295Z,10.53
2018-09-20T05:34:57.632Z,9.87
2018-09-20T05:37:29.876Z,10.83
2018-09-20T05:40:02.180Z,10.28
2018-09-20T05:42:34.428Z,8.60
2018-09-20T05:45:06.833Z,9.70
2018-09-20T05:47:39.092Z,9.83
2018-09-20T05:50:11.380Z,10.17
2018-09-20T05:52:43.653Z,10.72
2018-09-20T05:55:15.958Z,9.33
2018-09-20T05:57:48.249Z,10.48
2018-09-20T06:00:20.592Z,8.98
2018-09-20T06:02:53.032Z,10.28
2018-09-20T06:05:25.337Z,11.33
2018-09-20T06:07:57.660Z,11.70
2018-09-20T06:10:29.960Z,10.55
2018-09-20T06:13:02.313Z,9.68
2018-09-20T06:15:34.614Z,11.75
2018-09-20T06:18:06.861Z,10.88
2018-09-20T06:20:39.211Z,10.53
2018-09-20T06:23:11.484Z,10.60
2018-09-20T06:25:44.130Z,9.95
2018-09-20T06:28:16.381Z,9.95
2018-09-20T06:30:48.755Z,10.38
2018-09-20T06:33:21.023Z,10.75
2018-09-20T06:35:53.416Z,10.23
2018-09-20T06:38:25.687Z,9.78
2018-09-20T06:40:57.978Z,11.45
2018-09-20T06:43:30.224Z,11.12
2018-09-20T06:46:02.538Z,11.28
2018-09-20T06:48:34.780Z,10.35
2018-09-20T06:51:07.132Z,11.65
2018-09-20T06:53:39.392Z,11.88
2018-09-20T06:56:11.815Z,12.05
2018-09-20T06:58:44.097Z,12.33
2018-09-20T07:01:16.386Z,10.55
2018-09-20T07:03:48.720Z,11.00
2018-09-20T07:06:21.462Z,11.80
2018-09-20T07:08:53.697Z,10.88
2018-09-20T07:11:25.992Z,12.05
2018-09-20T07:13:58.313Z,10.95
2018-09-20T07:16:30.646Z,11.45
2018-09-20T07:19:03.290Z,12.35
2018-09-20T07:21:35.520Z,13.15
2018-09-20T07:24:07.750Z,12.78
2018-09-20T07:26:40.034Z,12.53
2018-09-20T07:29:12.354Z,12.37
2018-09-20T07:31:44.624Z,10.40
2018-09-20T07:34:16.893Z,12.15
2018-09-20T07:36:49.212Z,12.05
2018-09-20T07:39:21.478Z,11.33
2018-09-20T07:41:53.799Z,12.60
2018-09-20T07:44:26.054Z,10.58
2018-09-20T07:46:58.313Z,12.45
2018-09-20T07:49:30.589Z,10.65
2018-09-20T07:52:02.949Z,10.93
2018-09-20T07:54:35.251Z,10.45
2018-09-20T07:57:07.709Z,11.15
2018-09-20T07:59:40.031Z,10.85
2018-09-20T08:02:12.344Z,11.88
2018-09-20T08:04:44.636Z,10.68
2018-09-20T08:07:17.108Z,9.73
2018-09-20T08:09:49.319Z,9.03
2018-09-20T08:12:21.592Z,10.35
2018-09-20T08:14:53.875Z,9.60
2018-09-20T08:17:26.144Z,10.50
2018-09-20T08:19:58.414Z,8.65
2018-09-20T08:22:30.724Z,9.50
2018-09-20T08:25:03.062Z,8.25
2018-09-20T08:27:35.304Z,8.45
2018-09-20T08:30:07.685Z,8.25
2018-09-20T08:32:39.989Z,8.58
2018-09-20T08:35:12.261Z,8.38
2018-09-20T08:37:44.600Z,8.50
2018-09-20T08:40:17.134Z,8.13
2018-09-20T08:42:49.427Z,8.18
2018-09-20T08:45:21.721Z,8.23
2018-09-20T08:47:53.981Z,8.00
2018-09-20T08:50:26.302Z,8.20
2018-09-20T08:52:58.596Z,7.62
2018-09-20T08:55:30.886Z,7.15
2018-09-20T08:58:03.160Z,8.55
2018-09-20T09:00:35.429Z,8.33
2018-09-20T09:03:07.690Z,6.58
2018-09-20T09:05:40.083Z,6.47
2018-09-20T09:08:12.345Z,6.80
2018-09-20T09:10:44.629Z,6.95
2018-09-20T09:13:16.903Z,6.70
2018-09-20T09:15:49.178Z,7.95
2018-09-20T09:18:21.520Z,7.47
2018-09-20T09:20:53.809Z,7.42
2018-09-20T09:23:26.134Z,7.70
2018-09-20T09:25:58.456Z,7.22
2018-09-20T09:28:30.814Z,6.85
2018-09-20T09:31:03.067Z,7.90
2018-09-20T09:33:35.383Z,6.72
2018-09-20T09:36:07.693Z,7.30
2018-09-20T09:38:40.080Z,7.03
2018-09-20T09:41:12.353Z,6.53
2018-09-20T09:43:44.593Z,7.40
2018-09-20T09:46:16.941Z,6.45
2018-09-20T09:48:49.333Z,6.17
2018-09-20T09:51:21.591Z,7.58
2018-09-20T09:53:53.904Z,6.92
2018-09-20T09:56:26.153Z,6.90
2018-09-20T09:58:58.429Z,7.10
2018-09-20T10:01:30.765Z,7.85
2018-09-20T10:04:03.229Z,6.62
2018-09-20T10:06:35.500Z,7.60
2018-09-20T10:09:09.246Z,7.00
2018-09-20T10:11:41.485Z,6.97
2018-09-20T10:14:13.771Z,7.30
2018-09-20T10:16:46.057Z,6.78
2018-09-20T10:19:18.353Z,7.12
2018-09-20T10:21:50.642Z,6.30
2018-09-20T10:24:22.941Z,6.70
2018-09-20T10:26:55.261Z,5.70
2018-09-20T10:29:27.570Z,5.95
2018-09-20T10:31:59.875Z,6.12
2018-09-20T10:34:32.226Z,6.70
2018-09-20T10:37:05.575Z,6.25
2018-09-20T10:39:37.825Z,6.25
2018-09-20T10:42:10.145Z,6.58
2018-09-20T10:44:42.412Z,6.35
2018-09-20T10:47:14.788Z,6.35
2018-09-20T10:49:47.058Z,6.25
2018-09-20T10:52:19.359Z,5.97
2018-09-20T10:54:51.654Z,6.03
2018-09-20T10:57:24.031Z,5.78
2018-09-20T10:59:56.297Z,6.17
2018-09-20T11:02:28.612Z,6.72
2018-09-20T11:05:01.014Z,5.72
2018-09-20T11:07:33.304Z,5.37
2018-09-20T11:10:05.656Z,6.00
2018-09-20T11:12:37.993Z,5.35
2018-09-20T11:15:10.356Z,5.70
2018-09-20T11:17:42.668Z,6.75
2018-09-20T11:20:14.929Z,5.55
2018-09-20T11:22:47.251Z,5.20
2018-09-20T11:25:19.561Z,5.60
2018-09-20T11:30:31.070Z,5.37
2018-09-20T11:33:03.434Z,5.40
2018-09-20T11:35:35.706Z,5.53
2018-09-20T11:38:08.005Z,5.28
2018-09-20T11:40:40.268Z,5.12
2018-09-20T11:43:12.609Z,5.03
2018-09-20T11:45:44.889Z,5.22
2018-09-20T11:48:17.188Z,4.92
2018-09-20T11:50:49.446Z,5.22
2018-09-20T11:53:21.748Z,5.65
2018-09-20T11:55:54.025Z,5.37
2018-09-20T11:58:26.313Z,5.30
2018-09-20T12:00:58.666Z,5.28
2018-09-20T12:03:30.965Z,5.55
2018-09-20T12:06:03.247Z,5.60
2018-09-20T12:08:35.532Z,5.30
2018-09-20T12:11:07.949Z,5.55
2018-09-20T12:13:40.288Z,6.03
2018-09-20T12:16:12.582Z,4.10
2018-09-20T12:18:44.901Z,4.80
2018-09-20T12:21:17.201Z,5.67
2018-09-20T12:23:49.517Z,5.25
2018-09-20T12:26:22.069Z,4.70
2018-09-20T12:28:54.385Z,4.92
2018-09-20T12:31:26.769Z,5.00
2018-09-20T12:33:59.049Z,5.03
2018-09-20T12:36:31.332Z,5.40
2018-09-20T12:39:06.053Z,5.42
2018-09-20T12:41:38.569Z,4.42
2018-09-20T12:44:10.824Z,5.22
2018-09-20T12:46:43.146Z,5.08
2018-09-20T12:49:15.424Z,4.87
2018-09-20T12:51:47.718Z,4.70
2018-09-20T12:54:20.013Z,4.78
2018-09-20T12:56:52.302Z,5.37
2018-09-20T12:59:24.712Z,5.25
2018-09-20T13:01:57.020Z,4.95
2018-09-20T13:04:29.318Z,5.05
2018-09-20T13:07:01.625Z,4.62
2018-09-20T13:09:33.945Z,4.83
2018-09-20T13:12:06.311Z,5.72
2018-09-20T13:14:38.571Z,4.53
2018-09-20T13:17:10.899Z,5.20
2018-09-20T13:19:43.225Z,5.22
2018-09-20T13:22:15.580Z,6.00
2018-09-20T13:24:47.885Z,4.78
2018-09-20T13:27:20.234Z,4.40
2018-09-20T13:29:52.541Z,5.28
2018-09-20T13:32:24.850Z,5.03
2018-09-20T13:34:57.193Z,5.30
2018-09-20T13:37:29.453Z,5.10
2018-09-20T13:40:01.845Z,5.20
2018-09-20T13:42:34.144Z,5.22
2018-09-20T13:45:06.507Z,5.08
2018-09-20T13:47:38.825Z,5.08
2018-09-20T13:50:11.207Z,5.40
2018-09-20T13:52:43.573Z,4.30
2018-09-20T13:55:15.879Z,5.12
2018-09-20T13:57:48.233Z,4.80
2018-09-20T14:00:20.669Z,5.33
2018-09-20T14:02:53.147Z,5.58
2018-09-20T14:05:25.553Z,5.22
2018-09-20T14:07:57.939Z,5.33
2018-09-20T14:10:30.269Z,5.67
2018-09-20T14:13:02.649Z,6.25
2018-09-20T14:15:35.037Z,5.35
2018-09-20T14:18:07.309Z,5.47
2018-09-20T14:20:39.648Z,4.78
2018-09-20T14:23:11.999Z,4.67
2018-09-20T14:25:44.401Z,5.25
2018-09-20T14:28:16.734Z,5.28
2018-09-20T14:30:49.100Z,5.08
2018-09-20T14:33:21.442Z,5.00
2018-09-20T14:35:53.793Z,5.87
2018-09-20T14:38:26.115Z,4.80
2018-09-20T14:40:58.440Z,5.00
2018-09-20T14:43:30.750Z,5.67
2018-09-20T14:46:03.093Z,4.62
2018-09-20T14:48:35.488Z,4.53
2018-09-20T14:51:08.089Z,5.40
2018-09-20T14:53:40.393Z,4.87
2018-09-20T14:56:12.786Z,5.05
2018-09-20T14:58:45.146Z,4.40
2018-09-20T15:01:17.437Z,4.78
2018-09-20T15:03:49.774Z,5.00
2018-09-20T15:06:22.100Z,5.47
2018-09-20T15:08:54.468Z,5.20
2018-09-20T15:11:26.794Z,5.28
2018-09-20T15:13:59.221Z,5.95
2018-09-20T15:16:31.598Z,4.20
2018-09-20T15:19:04.059Z,4.28
2018-09-20T15:21:36.347Z,5.42
2018-09-20T15:24:08.702Z,4.87
2018-09-20T15:26:41.017Z,5.50
2018-09-20T15:29:13.297Z,5.72
2018-09-20T15:31:45.624Z,5.62
2018-09-20T15:34:17.973Z,5.12
2018-09-20T15:36:50.281Z,5.85
2018-09-20T15:39:22.685Z,6.67
2018-09-20T15:41:55.059Z,6.53
2018-09-20T15:44:27.370Z,7.10
2018-09-20T15:46:59.637Z,11.28
2018-09-20T15:49:31.947Z,5.92
2018-09-20T15:52:04.293Z,7.05
2018-09-20T15:54:36.620Z,10.80
2018-09-20T15:57:08.918Z,5.75
2018-09-20T15:59:41.218Z,5.95
2018-09-20T16:02:13.492Z,4.95
2018-09-20T16:04:45.852Z,6.67
2018-09-20T16:07:18.150Z,4.95
2018-09-20T16:09:50.466Z,4.72
2018-09-20T16:12:22.823Z,6.30
2018-09-20T16:14:55.116Z,4.67
2018-09-20T16:17:27.434Z,4.47
2018-09-20T16:19:59.781Z,5.80
2018-09-20T16:22:32.123Z,4.47
2018-09-20T16:25:05.149Z,4.70
2018-09-20T16:27:37.504Z,5.20
2018-09-20T16:30:24.745Z,4.30
2018-09-20T16:33:18.622Z,4.85
2018-09-20T16:35:59.592Z,4.10
2018-09-20T16:38:40.803Z,4.47
2018-09-20T16:41:15.073Z,4.50
2018-09-20T16:43:47.437Z,4.55
2018-09-20T16:46:19.793Z,4.78
2018-09-20T16:48:52.033Z,5.03
2018-09-20T16:51:24.394Z,4.72
2018-09-20T16:53:56.709Z,4.35
2018-09-20T16:57:00.897Z,4.62
2018-09-20T16:59:33.147Z,5.85
2018-09-20T17:02:05.647Z,4.78
2018-09-20T17:04:38.001Z,5.55
2018-09-20T17:07:10.405Z,4.40
2018-09-20T17:09:42.688Z,4.75
2018-09-20T17:12:15.072Z,5.65
2018-09-20T17:14:47.420Z,5.28
2018-09-20T17:17:19.659Z,5.47
2018-09-20T17:19:52.044Z,5.47
2018-09-20T17:22:24.435Z,6.28
2018-09-20T17:24:56.749Z,6.22
2018-09-20T17:27:29.083Z,6.28
2018-09-20T17:30:01.434Z,4.97
2018-09-20T17:32:33.792Z,5.33
2018-09-20T17:35:06.217Z,5.20
2018-09-20T17:37:39.209Z,4.80
2018-09-20T17:40:12.990Z,5.67
2018-09-20T17:42:46.771Z,5.45
2018-09-20T17:45:19.123Z,7.00
2018-09-20T17:47:51.461Z,6.28
2018-09-20T17:50:23.860Z,4.85
2018-09-20T17:52:56.475Z,6.25
2018-09-20T17:55:29.224Z,4.95
2018-09-20T17:58:01.765Z,6.22
2018-09-20T18:00:34.168Z,6.33
2018-09-20T18:03:06.497Z,6.40
2018-09-20T18:05:38.810Z,6.70
2018-09-20T18:08:11.130Z,6.00
2018-09-20T18:10:43.438Z,6.17
2018-09-20T18:13:15.781Z,5.08
2018-09-20T18:15:48.164Z,6.17
2018-09-20T18:18:20.548Z,6.75
2018-09-20T18:20:52.878Z,6.67
2018-09-20T18:23:25.185Z,6.47
2018-09-20T18:25:57.593Z,7.35
2018-09-20T18:28:29.906Z,7.45
2018-09-20T18:31:02.299Z,7.22
2018-09-20T18:33:34.601Z,6.70
2018-09-20T18:36:06.981Z,6.95
2018-09-20T18:38:39.274Z,7.35
2018-09-20T18:41:11.634Z,6.80
2018-09-20T18:43:43.972Z,6.83
2018-09-20T18:46:16.396Z,6.58
2018-09-20T18:48:48.712Z,7.70
2018-09-20T18:51:21.161Z,7.30
2018-09-20T18:53:53.484Z,7.17
2018-09-20T18:56:25.881Z,7.33
2018-09-20T18:58:58.221Z,7.78
2018-09-20T19:01:30.583Z,7.55
2018-09-20T19:04:02.936Z,7.30
2018-09-20T19:06:35.318Z,7.28
2018-09-20T19:09:08.362Z,6.47
2018-09-20T19:11:40.788Z,6.22
2018-09-20T19:14:13.162Z,6.80
2018-09-20T19:16:45.482Z,7.10
2018-09-20T19:19:17.942Z,7.17
2018-09-20T19:21:50.290Z,7.85
2018-09-20T19:24:22.649Z,7.42
2018-09-20T19:26:54.978Z,5.87
2018-09-20T19:29:27.362Z,7.42
2018-09-20T19:31:59.754Z,6.70
2018-09-20T19:34:32.132Z,6.97
2018-09-20T19:37:04.567Z,7.08
2018-09-20T19:39:36.847Z,7.25
2018-09-20T19:42:09.229Z,7.15
2018-09-20T19:44:41.600Z,8.50
2018-09-20T19:47:13.973Z,7.05
2018-09-20T19:49:46.371Z,7.67
2018-09-20T19:52:18.842Z,8.03
2018-09-20T19:54:51.320Z,8.78
2018-09-20T19:57:23.630Z,8.13
2018-09-20T19:59:55.950Z,7.72
2018-09-20T20:02:28.293Z,8.13
2018-09-20T20:05:00.676Z,9.15
2018-09-20T20:07:33.054Z,7.80
2018-09-20T20:10:05.416Z,8.25
2018-09-20T20:12:37.829Z,9.05
2018-09-20T20:15:10.166Z,7.58
2018-09-20T20:17:42.696Z,7.20
2018-09-20T20:20:15.064Z,7.20
2018-09-20T20:22:47.465Z,7.75
2018-09-20T20:25:19.740Z,8.70
2018-09-20T20:27:52.095Z,8.20
2018-09-20T20:30:24.611Z,9.30
2018-09-20T20:32:56.966Z,7.87
2018-09-20T20:35:29.298Z,8.28
2018-09-20T20:38:01.950Z,8.20
2018-09-20T20:40:34.535Z,8.05
2018-09-20T20:43:07.270Z,7.62
2018-09-20T20:45:40.093Z,8.40
2018-09-20T20:48:14.259Z,7.80
2018-09-20T20:50:46.676Z,8.70
2018-09-20T20:53:19.001Z,8.03
2018-09-20T20:55:51.295Z,9.03
2018-09-20T20:58:23.707Z,7.83
2018-09-20T21:00:56.054Z,9.18
2018-09-20T21:03:28.437Z,8.20
2018-09-20T21:06:00.738Z,8.78
2018-09-20T21:08:33.030Z,7.67
2018-09-20T21:11:05.338Z,10.93
2018-09-20T21:13:37.757Z,8.40
2018-09-20T21:16:10.122Z,9.68
2018-09-20T21:18:42.550Z,7.70
2018-09-20T21:21:14.944Z,9.15
2018-09-20T21:23:47.288Z,10.18
2018-09-20T21:26:19.632Z,9.80
2018-09-20T21:28:51.954Z,9.53
2018-09-20T21:31:24.295Z,9.18
2018-09-20T21:33:57.075Z,10.05
2018-09-20T21:36:29.524Z,8.80
2018-09-20T21:39:01.876Z,8.95
2018-09-20T21:41:34.230Z,9.00
2018-09-20T21:44:06.611Z,9.78
2018-09-20T21:46:38.912Z,10.45
2018-09-20T21:49:11.172Z,9.15
2018-09-20T21:51:43.501Z,9.98
2018-09-20T21:54:15.816Z,9.90
2018-09-20T21:56:48.105Z,10.30
2018-09-20T21:59:20.408Z,9.58
2018-09-20T22:01:58.424Z,9.45
2018-09-20T22:04:31.596Z,10.38
2018-09-20T22:07:03.981Z,9.35
2018-09-20T22:09:36.408Z,10.63
2018-09-20T22:12:08.825Z,10.48
2018-09-20T22:14:41.124Z,9.88
2018-09-20T22:17:13.443Z,10.10
2018-09-20T22:19:45.783Z,10.08
2018-09-20T22:22:18.093Z,9.50
2018-09-20T22:24:50.395Z,9.35
2018-09-20T22:27:22.742Z,8.58
2018-09-20T22:29:55.034Z,11.00
2018-09-20T22:32:27.357Z,9.60
2018-09-20T22:34:59.679Z,10.43
2018-09-20T22:37:32.024Z,10.45
2018-09-20T22:40:04.521Z,9.80
2018-09-20T22:42:36.808Z,9.13
2018-09-20T22:45:09.119Z,10.55
2018-09-20T22:47:41.445Z,10.23
2018-09-20T22:50:13.701Z,10.75
2018-09-20T22:52:45.998Z,10.43
2018-09-20T22:55:18.299Z,11.03
2018-09-20T22:57:50.580Z,11.45
2018-09-20T23:00:25.474Z,10.68
2018-09-20T23:02:57.764Z,9.35
2018-09-20T23:05:30.065Z,9.48
2018-09-20T23:08:02.343Z,9.33
2018-09-20T23:10:34.665Z,9.88
2018-09-20T23:13:06.987Z,9.35
2018-09-20T23:15:39.297Z,10.93
2018-09-20T23:18:11.556Z,9.60
2018-09-20T23:20:43.901Z,9.75
2018-09-20T23:23:16.168Z,11.22
2018-09-20T23:25:48.439Z,9.18
2018-09-20T23:28:20.679Z,10.35
2018-09-20T23:30:52.974Z,11.68
2018-09-20T23:33:25.248Z,9.48
2018-09-20T23:35:57.507Z,11.12
2018-09-20T23:38:29.785Z,10.90
2018-09-20T23:41:02.067Z,11.08
2018-09-20T23:43:34.296Z,11.00
2018-09-20T23:46:06.613Z,11.48
2018-09-20T23:48:38.854Z,11.03
2018-09-20T23:51:11.176Z,11.18
2018-09-20T23:53:43.418Z,10.68
2018-09-20T23:56:15.699Z,9.05
2018-09-20T23:58:47.957Z,11.20
